createdAt,value
2019-01-13T00:01:54.334Z,4.00
2019-01-13T00:04:23.504Z,3.90
2019-01-13T00:06:52.764Z,4.10
2019-01-13T00:09:21.904Z,4.00
2019-01-13T00:11:51.057Z,4.10
2019-01-13T00:14:20.308Z,4.10
2019-01-13T00:16:49.440Z,4.10
2019-01-13T00:19:18.600Z,4.10
2019-01-13T00:21:47.740Z,4.10
2019-01-13T00:24:17.080Z,4.10
2019-01-13T00:26:46.292Z,4.10
2019-01-13T00:29:15.447Z,4.10
2019-01-13T00:31:44.601Z,4.10
2019-01-13T00:34:13.757Z,4.10
2019-01-13T00:36:43.084Z,4.10
2019-01-13T00:39:12.302Z,4.20
2019-01-13T00:41:41.788Z,4.20
2019-01-13T00:44:10.954Z,4.30
2019-01-13T00:46:40.140Z,4.30
2019-01-13T00:49:09.272Z,4.20
2019-01-13T00:51:38.440Z,4.30
2019-01-13T00:54:07.573Z,4.40
2019-01-13T00:56:36.844Z,4.30
2019-01-13T00:59:06.021Z,4.40
2019-01-13T01:01:35.327Z,4.30
2019-01-13T01:04:04.781Z,4.40
2019-01-13T01:06:34.004Z,4.40
2019-01-13T01:09:03.204Z,4.40
2019-01-13T01:11:32.349Z,4.40
2019-01-13T01:14:01.503Z,4.40
2019-01-13T01:16:30.675Z,4.50
2019-01-13T01:18:59.977Z,4.50
2019-01-13T01:21:29.312Z,4.40
2019-01-13T01:23:58.608Z,4.50
2019-01-13T01:26:27.837Z,4.60
2019-01-13T01:28:56.975Z,4.50
2019-01-13T01:31:26.193Z,4.60
2019-01-13T01:33:55.392Z,4.60
2019-01-13T01:36:24.602Z,4.60
2019-01-13T01:38:53.762Z,4.70
2019-01-13T01:41:22.921Z,4.60
2019-01-13T01:43:52.189Z,4.60
2019-01-13T01:46:21.530Z,4.70
2019-01-13T01:48:50.780Z,4.70
2019-01-13T01:51:19.910Z,4.80
2019-01-13T01:53:49.090Z,4.80
2019-01-13T01:56:18.236Z,4.80
2019-01-13T01:58:47.384Z,4.80
2019-01-13T02:01:16.519Z,4.80
2019-01-13T02:03:45.704Z,4.80
2019-01-13T02:06:14.896Z,4.80
2019-01-13T02:08:44.049Z,4.80
2019-01-13T02:11:13.194Z,4.80
2019-01-13T02:13:42.353Z,4.80
2019-01-13T02:16:11.480Z,4.70
2019-01-13T02:18:40.641Z,4.80
2019-01-13T02:21:09.779Z,4.80
2019-01-13T02:23:38.943Z,4.80
2019-01-13T02:26:08.075Z,4.70
2019-01-13T02:28:37.220Z,4.80
2019-01-13T02:31:06.380Z,4.80
2019-01-13T02:33:35.517Z,4.80
2019-01-13T02:36:04.668Z,4.70
2019-01-13T02:38:33.968Z,4.70
2019-01-13T02:41:03.300Z,4.80
2019-01-13T02:43:32.457Z,4.80
2019-01-13T02:46:01.616Z,4.70
2019-01-13T02:48:30.757Z,4.80
2019-01-13T02:50:59.906Z,4.80
2019-01-13T02:53:29.070Z,4.80
2019-01-13T02:55:58.253Z,4.80
2019-01-13T02:58:27.376Z,4.80
2019-01-13T03:00:57.349Z,4.80
2019-01-13T03:03:26.821Z,4.80
2019-01-13T03:05:56.071Z,4.80
2019-01-13T03:08:25.196Z,4.90
2019-01-13T03:10:54.336Z,4.80
2019-01-13T03:13:23.495Z,4.90
2019-01-13T03:15:52.640Z,4.90
2019-01-13T03:18:21.776Z,4.80
2019-01-13T03:20:51.121Z,4.80
2019-01-13T03:23:20.296Z,4.70
2019-01-13T03:25:49.505Z,4.70
2019-01-13T03:28:18.705Z,4.70
2019-01-13T03:30:47.849Z,4.70
2019-01-13T03:33:17.008Z,4.70
2019-01-13T03:35:46.151Z,4.70
2019-01-13T03:38:15.292Z,4.70
2019-01-13T03:40:44.432Z,4.70
2019-01-13T03:43:13.575Z,4.70
2019-01-13T03:45:42.712Z,4.80
2019-01-13T03:48:11.872Z,4.80
2019-01-13T03:50:41.002Z,4.90
2019-01-13T03:53:10.145Z,4.90
2019-01-13T03:55:39.290Z,4.80
2019-01-13T03:58:08.431Z,4.80
2019-01-13T04:00:37.631Z,4.80
2019-01-13T04:03:06.975Z,4.90
2019-01-13T04:05:36.113Z,4.90
2019-01-13T04:08:05.564Z,4.90
2019-01-13T04:10:34.696Z,4.90
2019-01-13T04:13:04.057Z,4.90
2019-01-13T04:15:41.624Z,4.90
2019-01-13T04:18:10.908Z,5.00
2019-01-13T04:20:40.024Z,5.00
2019-01-13T04:23:09.177Z,5.10
2019-01-13T04:25:38.308Z,5.10
2019-01-13T04:28:07.448Z,5.00
2019-01-13T04:30:36.594Z,4.90
2019-01-13T04:33:06.122Z,5.00
2019-01-13T04:35:35.279Z,5.00
2019-01-13T04:38:04.492Z,5.00
2019-01-13T04:40:33.657Z,5.10
2019-01-13T04:43:02.851Z,5.10
2019-01-13T04:45:32.062Z,5.10
2019-01-13T04:48:01.189Z,5.30
2019-01-13T04:50:30.405Z,5.30
2019-01-13T04:52:59.651Z,5.30
2019-01-13T04:55:28.988Z,5.40
2019-01-13T04:57:58.211Z,5.40
2019-01-13T05:00:27.367Z,5.40
2019-01-13T05:02:56.694Z,5.40
2019-01-13T05:05:25.846Z,5.40
2019-01-13T05:07:55.113Z,5.40
2019-01-13T05:10:24.391Z,5.40
2019-01-13T05:12:53.528Z,5.50
2019-01-13T05:15:22.877Z,5.50
2019-01-13T05:17:52.003Z,5.50
2019-01-13T05:20:21.692Z,5.50
2019-01-13T05:22:50.838Z,5.50
2019-01-13T05:25:20.013Z,5.50
2019-01-13T05:27:49.144Z,5.60
2019-01-13T05:30:22.780Z,5.50
2019-01-13T05:32:51.928Z,5.50
2019-01-13T05:35:21.508Z,5.60
2019-01-13T05:37:50.660Z,5.60
2019-01-13T05:40:21.090Z,5.60
2019-01-13T05:42:50.239Z,5.60
2019-01-13T05:45:20.728Z,5.60
2019-01-13T05:47:50.110Z,5.50
2019-01-13T05:50:19.910Z,5.50
2019-01-13T05:52:54.325Z,5.50
2019-01-13T05:55:24.029Z,5.40
2019-01-13T05:57:53.176Z,5.50
2019-01-13T06:00:24.879Z,5.40
2019-01-13T06:02:54.023Z,5.30
2019-01-13T06:05:23.305Z,5.40
2019-01-13T06:07:52.464Z,5.30
2019-01-13T06:10:24.905Z,5.30
2019-01-13T06:12:54.052Z,5.30
2019-01-13T06:15:24.483Z,5.30
2019-01-13T06:17:53.638Z,5.30
2019-01-13T06:20:24.853Z,5.30
2019-01-13T06:22:54.124Z,5.30
2019-01-13T06:25:23.268Z,5.20
2019-01-13T06:27:52.576Z,5.20
2019-01-13T06:30:25.196Z,5.30
2019-01-13T06:32:54.363Z,5.30
2019-01-13T06:35:23.618Z,5.20
2019-01-13T06:37:52.939Z,5.00
2019-01-13T06:40:22.777Z,5.10
2019-01-13T06:42:52.213Z,5.00
2019-01-13T06:45:23.434Z,5.00
2019-01-13T06:47:52.655Z,4.90
2019-01-13T06:50:22.024Z,4.80
2019-01-13T06:52:51.364Z,4.90
2019-01-13T06:55:20.521Z,4.90
2019-01-13T06:57:49.761Z,4.80
2019-01-13T07:00:23.780Z,4.90
2019-01-13T07:02:53.689Z,4.90
2019-01-13T07:05:23.014Z,4.80
2019-01-13T07:07:52.326Z,4.80
2019-01-13T07:10:21.458Z,4.80
2019-01-13T07:12:50.663Z,4.80
2019-01-13T07:15:20.865Z,4.80
2019-01-13T07:17:50.069Z,4.80
2019-01-13T07:20:21.365Z,4.80
2019-01-13T07:22:51.208Z,4.70
2019-01-13T07:25:20.617Z,4.80
2019-01-13T07:27:49.761Z,4.80
2019-01-13T07:30:23.919Z,4.90
2019-01-13T07:32:53.410Z,4.80
2019-01-13T07:35:22.562Z,4.80
2019-01-13T07:37:51.708Z,4.80
2019-01-13T07:40:22.493Z,4.80
2019-01-13T07:42:51.941Z,4.80
2019-01-13T07:45:25.675Z,4.80
2019-01-13T07:47:54.845Z,4.80
2019-01-13T07:50:23.983Z,4.90
2019-01-13T07:52:53.347Z,4.90
2019-01-13T07:55:23.761Z,4.90
2019-01-13T07:57:53.239Z,4.90
2019-01-13T08:00:28.060Z,4.90
2019-01-13T08:02:57.222Z,4.80
2019-01-13T08:05:26.356Z,4.90
2019-01-13T08:07:55.512Z,4.90
2019-01-13T08:10:24.672Z,5.00
2019-01-13T08:12:53.852Z,5.10
2019-01-13T08:15:22.993Z,5.10
2019-01-13T08:17:52.236Z,5.10
2019-01-13T08:20:24.222Z,5.10
2019-01-13T08:22:53.589Z,5.10
2019-01-13T08:25:23.054Z,5.20
2019-01-13T08:27:52.228Z,5.20
2019-01-13T08:30:21.569Z,5.20
2019-01-13T08:32:50.811Z,5.20
2019-01-13T08:37:55.303Z,5.30
2019-01-13T08:40:24.465Z,5.20
2019-01-13T08:42:53.610Z,5.30
2019-01-13T08:45:22.740Z,5.30
2019-01-13T08:47:51.981Z,5.20
2019-01-13T08:50:23.008Z,5.20
2019-01-13T08:52:52.483Z,5.30
2019-01-13T08:55:23.378Z,5.20
2019-01-13T08:57:52.528Z,5.30
2019-01-13T09:00:27.168Z,5.30
2019-01-13T09:02:56.375Z,5.30
2019-01-13T09:05:26.007Z,5.40
2019-01-13T09:07:55.152Z,5.30
2019-01-13T09:10:24.360Z,5.20
2019-01-13T09:12:56.847Z,5.20
2019-01-13T09:15:25.441Z,5.20
2019-01-13T09:17:54.937Z,5.30
2019-01-13T09:20:33.023Z,5.30
2019-01-13T09:23:03.464Z,5.20
2019-01-13T09:25:37.067Z,5.20
2019-01-13T09:28:07.503Z,5.30
2019-01-13T09:30:37.216Z,5.20
2019-01-13T09:33:06.633Z,5.30
2019-01-13T09:35:36.023Z,5.30
2019-01-13T09:38:06.806Z,5.30
2019-01-13T09:40:36.219Z,5.20
2019-01-13T09:43:06.429Z,5.20
2019-01-13T09:45:36.200Z,5.10
2019-01-13T09:48:05.508Z,5.10
2019-01-13T09:50:34.696Z,5.20
2019-01-13T09:53:04.443Z,5.30
2019-01-13T09:55:34.552Z,5.20
2019-01-13T09:58:03.744Z,5.20
2019-01-13T10:00:37.027Z,5.20
2019-01-13T10:03:08.049Z,5.20
2019-01-13T10:05:38.047Z,5.20
2019-01-13T10:08:08.002Z,5.20
2019-01-13T10:10:37.353Z,5.00
2019-01-13T10:13:06.616Z,5.00
2019-01-13T10:15:35.765Z,5.00
2019-01-13T10:18:05.030Z,5.00
2019-01-13T10:20:34.215Z,4.90
2019-01-13T10:23:03.404Z,4.80
2019-01-13T10:25:32.556Z,4.90
2019-01-13T10:28:01.814Z,4.90
2019-01-13T10:30:32.776Z,4.90
2019-01-13T10:33:02.313Z,4.90
2019-01-13T10:35:31.872Z,4.80
2019-01-13T10:38:01.176Z,4.80
2019-01-13T10:40:31.564Z,4.80
2019-01-13T10:43:01.217Z,4.80
2019-01-13T10:45:31.116Z,4.90
2019-01-13T10:48:00.602Z,4.90
2019-01-13T10:50:31.841Z,4.80
2019-01-13T10:53:08.512Z,4.80
2019-01-13T10:55:37.934Z,4.70
2019-01-13T10:58:08.168Z,4.70
2019-01-13T11:00:38.436Z,4.80
2019-01-13T11:03:07.915Z,4.80
2019-01-13T11:05:37.392Z,4.80
2019-01-13T11:08:11.653Z,4.60
2019-01-13T11:10:38.522Z,4.60
2019-01-13T11:13:07.723Z,4.70
2019-01-13T11:15:36.860Z,4.80
2019-01-13T11:18:06.896Z,4.80
2019-01-13T11:20:38.332Z,4.70
2019-01-13T11:23:08.248Z,4.80
2019-01-13T11:25:37.440Z,4.80
2019-01-13T11:28:06.880Z,4.80
2019-01-13T11:30:36.132Z,4.80
2019-01-13T11:33:09.654Z,4.90
2019-01-13T11:35:36.413Z,4.80
2019-01-13T11:38:05.901Z,4.90
2019-01-13T11:40:35.142Z,4.80
2019-01-13T11:43:04.543Z,5.00
2019-01-13T11:45:33.776Z,5.10
2019-01-13T11:48:03.087Z,5.10
2019-01-13T11:50:32.339Z,5.00
2019-01-13T11:53:01.494Z,5.00
2019-01-13T11:55:30.701Z,5.10
2019-01-13T11:57:59.864Z,5.10
2019-01-13T12:00:46.525Z,5.20
2019-01-13T12:03:17.152Z,5.30
2019-01-13T12:05:46.951Z,5.30
2019-01-13T12:08:16.122Z,5.30
2019-01-13T12:10:45.294Z,5.30
2019-01-13T12:13:14.433Z,5.40
2019-01-13T12:15:43.590Z,5.40
2019-01-13T12:18:12.836Z,5.40
2019-01-13T12:20:41.998Z,5.40
2019-01-13T12:23:11.156Z,5.50
2019-01-13T12:25:40.481Z,5.40
2019-01-13T12:28:09.657Z,5.50
2019-01-13T12:30:38.875Z,5.40
2019-01-13T12:33:08.056Z,5.40
2019-01-13T12:35:37.268Z,5.50
2019-01-13T12:38:06.752Z,5.40
2019-01-13T12:40:36.133Z,5.50
2019-01-13T12:43:06.665Z,5.40
2019-01-13T12:45:36.156Z,5.50
2019-01-13T12:48:05.640Z,5.40
2019-01-13T12:50:34.911Z,5.50
2019-01-13T12:53:04.436Z,5.60
2019-01-13T12:55:33.714Z,5.50
2019-01-13T12:58:02.944Z,5.60
2019-01-13T13:00:32.125Z,5.60
2019-01-13T13:03:01.274Z,5.40
2019-01-13T13:05:30.497Z,5.50
2019-01-13T13:07:59.704Z,5.60
2019-01-13T13:10:43.245Z,5.60
2019-01-13T13:13:13.124Z,5.50
2019-01-13T13:15:42.312Z,5.50
2019-01-13T13:18:11.550Z,5.60
2019-01-13T13:20:40.772Z,5.60
2019-01-13T13:23:10.322Z,5.50
2019-01-13T13:25:39.631Z,5.60
2019-01-13T13:28:08.797Z,5.70
2019-01-13T13:30:37.952Z,5.70
2019-01-13T13:33:07.107Z,5.80
2019-01-13T13:35:39.841Z,5.80
2019-01-13T13:38:07.804Z,5.80
2019-01-13T13:40:37.137Z,5.90
2019-01-13T13:43:06.559Z,5.80
2019-01-13T13:45:35.891Z,5.90
2019-01-13T13:48:05.670Z,5.90
2019-01-13T13:50:34.809Z,6.00
2019-01-13T13:53:04.568Z,5.90
2019-01-13T13:55:33.732Z,5.90
2019-01-13T13:58:03.247Z,5.90
2019-01-13T14:00:36.585Z,6.00
2019-01-13T14:03:06.464Z,6.00
2019-01-13T14:05:35.739Z,6.00
2019-01-13T14:08:06.944Z,6.10
2019-01-13T14:10:41.481Z,6.10
2019-01-13T14:13:10.941Z,6.10
2019-01-13T14:15:40.288Z,6.10
2019-01-13T14:18:09.476Z,6.10
2019-01-13T14:20:38.744Z,6.10
2019-01-13T14:23:07.933Z,6.20
2019-01-13T14:25:37.363Z,6.20
2019-01-13T14:28:06.569Z,6.20
2019-01-13T14:30:35.782Z,6.30
2019-01-13T14:33:05.453Z,6.20
2019-01-13T14:35:34.796Z,6.30
2019-01-13T14:38:04.481Z,6.30
2019-01-13T14:40:33.713Z,6.20
2019-01-13T14:43:03.073Z,6.30
2019-01-13T14:45:32.342Z,6.30
2019-01-13T14:48:01.478Z,6.40
2019-01-13T14:50:32.340Z,6.30
2019-01-13T14:53:02.557Z,6.40
2019-01-13T14:55:31.841Z,6.40
2019-01-13T14:58:00.999Z,6.40
2019-01-13T15:00:31.897Z,6.40
2019-01-13T15:03:01.698Z,6.40
2019-01-13T15:05:32.174Z,6.50
2019-01-13T15:08:01.397Z,6.40
2019-01-13T15:10:30.750Z,6.50
2019-01-13T15:12:59.937Z,6.50
2019-01-13T15:15:29.300Z,6.50
2019-01-13T15:17:58.455Z,6.50
2019-01-13T15:20:27.696Z,6.50
2019-01-13T15:22:56.956Z,6.50
2019-01-13T15:25:30.875Z,6.60
2019-01-13T15:28:00.048Z,6.50
2019-01-13T15:30:34.805Z,6.50
2019-01-13T15:33:04.742Z,6.60
2019-01-13T15:35:35.211Z,6.60
2019-01-13T15:38:05.248Z,6.60
2019-01-13T15:40:34.440Z,6.60
2019-01-13T15:43:03.732Z,6.70
2019-01-13T15:45:32.879Z,6.70
2019-01-13T15:48:02.180Z,6.70
2019-01-13T15:50:31.709Z,6.70
2019-01-13T15:53:00.893Z,6.70
2019-01-13T15:55:30.130Z,6.70
2019-01-13T15:57:59.305Z,6.70
2019-01-13T16:00:36.179Z,6.70
2019-01-13T16:03:07.805Z,6.70
2019-01-13T16:05:37.300Z,6.70
2019-01-13T16:08:06.713Z,6.70
2019-01-13T16:10:36.109Z,6.80
2019-01-13T16:13:05.478Z,6.90
2019-01-13T16:15:34.767Z,6.80
2019-01-13T16:18:04.216Z,6.80
2019-01-13T16:20:38.082Z,6.70
2019-01-13T16:23:07.357Z,6.70
2019-01-13T16:25:36.542Z,6.80
2019-01-13T16:28:06.338Z,6.80
2019-01-13T16:30:35.815Z,6.90
2019-01-13T16:33:05.189Z,6.90
2019-01-13T16:35:37.151Z,6.90
2019-01-13T16:38:06.904Z,6.90
2019-01-13T16:40:36.309Z,6.90
2019-01-13T16:43:07.398Z,6.90
2019-01-13T16:45:36.582Z,6.90
2019-01-13T16:48:07.029Z,6.90
2019-01-13T16:50:36.228Z,6.90
2019-01-13T16:53:06.148Z,6.90
2019-01-13T16:55:36.151Z,6.90
2019-01-13T16:58:06.386Z,6.90
2019-01-13T17:00:35.756Z,7.00
2019-01-13T17:03:05.598Z,7.00
2019-01-13T17:05:34.873Z,7.00
2019-01-13T17:08:04.908Z,7.00
2019-01-13T17:10:34.200Z,7.00
2019-01-13T17:13:03.651Z,7.00
2019-01-13T17:15:34.482Z,7.00
2019-01-13T17:18:03.644Z,7.00
2019-01-13T17:20:32.808Z,7.00
2019-01-13T17:23:02.110Z,7.00
2019-01-13T17:25:31.252Z,7.00
2019-01-13T17:28:00.419Z,7.00
2019-01-13T17:30:32.097Z,7.10
2019-01-13T17:33:01.518Z,7.10
2019-01-13T17:35:30.736Z,7.10
2019-01-13T17:38:00.040Z,7.10
2019-01-13T17:40:29.193Z,7.10
2019-01-13T17:42:58.581Z,7.20
2019-01-13T17:45:29.897Z,7.20
2019-01-13T17:47:59.160Z,7.20
2019-01-13T17:50:28.591Z,7.20
2019-01-13T17:52:57.865Z,7.30
2019-01-13T17:55:29.075Z,7.20
2019-01-13T17:57:58.508Z,7.30
2019-01-13T18:00:47.001Z,7.30
2019-01-13T18:03:22.601Z,7.30
2019-01-13T18:05:52.128Z,7.30
2019-01-13T18:08:21.558Z,7.30
2019-01-13T18:10:50.777Z,7.30
2019-01-13T18:13:19.933Z,7.30
2019-01-13T18:15:49.324Z,7.20
2019-01-13T18:18:18.488Z,7.30
2019-01-13T18:20:47.696Z,7.30
2019-01-13T18:23:16.863Z,7.30
2019-01-13T18:25:46.380Z,7.30
2019-01-13T18:28:15.653Z,7.20
2019-01-13T18:30:44.940Z,7.20
2019-01-13T18:33:14.209Z,7.30
2019-01-13T18:35:43.521Z,7.20
2019-01-13T18:38:12.756Z,7.30
2019-01-13T18:40:42.689Z,7.30
2019-01-13T18:43:11.853Z,7.30
2019-01-13T18:45:41.131Z,7.30
2019-01-13T18:48:10.489Z,7.30
2019-01-13T18:50:39.819Z,7.40
2019-01-13T18:53:11.927Z,7.40
2019-01-13T18:55:41.288Z,7.40
2019-01-13T18:58:10.560Z,7.40
2019-01-13T19:00:39.796Z,7.40
2019-01-13T19:03:08.943Z,7.40
2019-01-13T19:05:38.160Z,7.40
2019-01-13T19:08:07.485Z,7.40
2019-01-13T19:11:19.593Z,7.50
2019-01-13T19:14:14.480Z,7.50
2019-01-13T19:16:51.946Z,7.60
2019-01-13T19:19:21.210Z,7.60
2019-01-13T19:21:50.394Z,7.60
2019-01-13T19:24:19.533Z,7.60
2019-01-13T19:26:48.750Z,7.60
2019-01-13T19:29:17.911Z,7.60
2019-01-13T19:31:47.217Z,7.60
2019-01-13T19:34:16.380Z,7.60
2019-01-13T19:36:45.621Z,7.60
2019-01-13T19:39:14.973Z,7.70
2019-01-13T19:41:44.312Z,7.60
2019-01-13T19:44:13.489Z,7.60
2019-01-13T19:46:42.774Z,7.60
2019-01-13T19:49:12.564Z,7.70
2019-01-13T19:51:41.765Z,7.70
2019-01-13T19:54:11.085Z,7.70
2019-01-13T19:56:40.240Z,7.70
2019-01-13T19:59:09.489Z,7.70
2019-01-13T20:01:38.710Z,7.70
2019-01-13T20:04:08.042Z,7.70
2019-01-13T20:06:37.259Z,7.70
2019-01-13T20:09:10.283Z,7.80
2019-01-13T20:11:39.594Z,7.80
2019-01-13T20:14:08.895Z,7.80
2019-01-13T20:16:38.295Z,7.90
2019-01-13T20:19:07.555Z,7.90
2019-01-13T20:21:36.696Z,7.90
2019-01-13T20:24:05.883Z,7.90
2019-01-13T20:26:35.122Z,7.90
2019-01-13T20:29:04.400Z,7.90
2019-01-13T20:31:33.663Z,7.90
2019-01-13T20:34:03.012Z,8.00
2019-01-13T20:36:32.160Z,8.00
2019-01-13T20:39:01.482Z,8.00
2019-01-13T20:41:31.095Z,8.00
2019-01-13T20:44:00.232Z,8.00
2019-01-13T20:46:29.572Z,8.00
2019-01-13T20:48:58.769Z,8.00
2019-01-13T20:51:27.985Z,8.10
2019-01-13T20:53:57.228Z,8.10
2019-01-13T20:56:26.413Z,8.10
2019-01-13T20:58:55.561Z,8.10
2019-01-13T21:01:24.756Z,8.10
2019-01-13T21:03:54.092Z,8.10
2019-01-13T21:06:23.233Z,8.10
2019-01-13T21:08:52.953Z,8.10
2019-01-13T21:11:22.212Z,8.00
2019-01-13T21:13:51.553Z,7.80
2019-01-13T21:16:22.751Z,7.80
2019-01-13T21:18:51.881Z,7.80
2019-01-13T21:21:21.256Z,7.90
2019-01-13T21:23:50.410Z,7.90
2019-01-13T21:26:19.607Z,7.90
2019-01-13T21:28:48.844Z,7.90
2019-01-13T21:31:18.191Z,8.00
2019-01-13T21:33:47.329Z,7.90
2019-01-13T21:36:16.533Z,7.90
2019-01-13T21:38:45.693Z,7.80
2019-01-13T21:41:14.927Z,7.80
2019-01-13T21:43:44.340Z,7.70
2019-01-13T21:46:13.486Z,7.70
2019-01-13T21:48:42.660Z,7.60
2019-01-13T21:51:11.835Z,7.50
2019-01-13T21:53:41.099Z,7.50
2019-01-13T21:56:10.369Z,7.50
2019-01-13T21:58:39.553Z,7.50
2019-01-13T22:01:08.734Z,7.50
2019-01-13T22:03:37.909Z,7.50
2019-01-13T22:06:07.039Z,7.50
2019-01-13T22:08:36.203Z,7.60
2019-01-13T22:11:05.636Z,7.60
2019-01-13T22:13:34.897Z,7.60
2019-01-13T22:16:04.044Z,7.70
2019-01-13T22:18:33.318Z,7.80
2019-01-13T22:21:02.510Z,7.80
2019-01-13T22:23:31.688Z,7.80
2019-01-13T22:26:00.868Z,7.90
2019-01-13T22:28:30.090Z,7.90
2019-01-13T22:30:59.252Z,7.90
2019-01-13T22:33:28.389Z,7.90
2019-01-13T22:35:57.569Z,7.90
2019-01-13T22:38:26.818Z,7.90
2019-01-13T22:40:56.015Z,7.90
2019-01-13T22:43:25.248Z,7.90
2019-01-13T22:45:54.512Z,7.90
2019-01-13T22:48:23.838Z,7.90
2019-01-13T22:50:53.226Z,7.90
2019-01-13T22:53:22.473Z,7.90
2019-01-13T22:55:51.672Z,7.90
2019-01-13T22:58:20.909Z,7.80
2019-01-13T23:01:28.406Z,7.80
2019-01-13T23:04:00.561Z,7.70
2019-01-13T23:06:29.826Z,7.60
2019-01-13T23:08:58.972Z,7.60
2019-01-13T23:11:28.128Z,7.50
2019-01-13T23:13:57.456Z,7.40
2019-01-13T23:16:26.715Z,7.30
2019-01-13T23:18:55.845Z,7.10
2019-01-13T23:21:25.081Z,7.10
2019-01-13T23:23:54.328Z,7.00
2019-01-13T23:26:23.588Z,7.10
2019-01-13T23:28:52.836Z,7.10
2019-01-13T23:31:22.577Z,7.20
2019-01-13T23:33:51.751Z,7.20
2019-01-13T23:36:20.908Z,7.20
2019-01-13T23:38:50.072Z,7.20
2019-01-13T23:41:19.298Z,7.20
2019-01-13T23:43:48.566Z,7.10
2019-01-13T23:46:17.780Z,7.10
2019-01-13T23:48:46.937Z,7.00
2019-01-13T23:51:16.703Z,7.00
2019-01-13T23:53:45.929Z,6.90
2019-01-13T23:56:15.060Z,6.90
2019-01-13T23:58:44.221Z,6.90
